createdAt,value
2022-11-17T00:01:17.356Z,100.00
2022-11-17T00:04:03.704Z,100.00
2022-11-17T00:06:50.305Z,100.00
2022-11-17T00:09:37.386Z,100.00
2022-11-17T00:12:42.296Z,100.00
2022-11-17T00:15:28.866Z,100.00
2022-11-17T00:18:33.843Z,100.00
2022-11-17T00:21:21.241Z,100.00
2022-11-17T00:24:08.308Z,100.00
2022-11-17T00:27:03.560Z,100.00
2022-11-17T00:29:50.366Z,100.00
2022-11-17T00:32:55.386Z,100.00
2022-11-17T00:35:41.615Z,100.00
2022-11-17T00:38:28.097Z,100.00
2022-11-17T00:41:14.694Z,100.00
2022-11-17T00:44:01.415Z,100.00
2022-11-17T00:46:48.534Z,100.00
2022-11-17T00:49:36.647Z,100.00
2022-11-17T00:52:22.916Z,100.00
2022-11-17T00:55:10.069Z,100.00
2022-11-17T00:57:56.589Z,100.00
2022-11-17T01:00:42.848Z,100.00
2022-11-17T01:03:29.298Z,100.00
2022-11-17T01:06:18.878Z,100.00
2022-11-17T01:09:08.214Z,100.00
2022-11-17T01:11:54.455Z,100.00
2022-11-17T01:14:40.922Z,100.00
2022-11-17T01:17:27.012Z,100.00
2022-11-17T01:20:13.410Z,100.00
2022-11-17T01:23:00.148Z,100.00
2022-11-17T01:25:46.416Z,100.00
2022-11-17T01:28:33.266Z,100.00
2022-11-17T01:31:22.669Z,100.00
2022-11-17T01:34:09.149Z,100.00
2022-11-17T01:37:14.200Z,100.00
2022-11-17T01:40:00.579Z,100.00
2022-11-17T01:42:50.043Z,100.00
2022-11-17T01:45:37.824Z,100.00
2022-11-17T01:48:24.133Z,100.00
2022-11-17T01:51:14.094Z,100.00
2022-11-17T01:54:02.358Z,100.00
2022-11-17T01:56:54.416Z,100.00
2022-11-17T01:59:45.227Z,100.00
2022-11-17T02:02:33.033Z,100.00
2022-11-17T02:05:33.335Z,100.00
2022-11-17T02:08:22.875Z,100.00
2022-11-17T02:11:14.191Z,100.00
2022-11-17T02:14:00.492Z,100.00
2022-11-17T02:16:47.163Z,100.00
2022-11-17T02:19:38.275Z,100.00
2022-11-17T02:22:52.617Z,100.00
2022-11-17T02:26:13.452Z,100.00
2022-11-17T02:29:11.006Z,100.00
2022-11-17T02:32:13.112Z,100.00
2022-11-17T02:35:28.096Z,100.00
2022-11-17T02:38:24.757Z,100.00
2022-11-17T02:41:22.971Z,100.00
2022-11-17T02:44:31.367Z,100.00
2022-11-17T02:47:26.292Z,100.00
2022-11-17T02:50:13.985Z,100.00
2022-11-17T02:53:00.650Z,100.00
2022-11-17T02:55:52.171Z,100.00
2022-11-17T02:58:38.866Z,100.00
2022-11-17T03:01:34.381Z,100.00
2022-11-17T03:04:50.117Z,100.00
2022-11-17T03:07:56.227Z,100.00
2022-11-17T03:10:49.592Z,100.00
2022-11-17T03:14:04.340Z,100.00
2022-11-17T03:17:18.562Z,100.00
2022-11-17T03:20:26.302Z,100.00
2022-11-17T03:23:41.140Z,100.00
2022-11-17T03:26:34.917Z,100.00
2022-11-17T03:29:24.223Z,100.00
2022-11-17T03:32:11.286Z,100.00
2022-11-17T03:35:03.120Z,100.00
2022-11-17T03:37:53.765Z,100.00
2022-11-17T03:40:45.150Z,100.00
2022-11-17T03:43:32.595Z,100.00
2022-11-17T03:46:21.827Z,100.00
2022-11-17T03:49:26.950Z,100.00
2022-11-17T03:52:13.857Z,100.00
2022-11-17T03:55:01.576Z,100.00
2022-11-17T03:58:06.714Z,100.00
2022-11-17T04:00:54.692Z,100.00
2022-11-17T04:03:41.369Z,100.00
2022-11-17T04:06:27.829Z,100.00
2022-11-17T04:09:14.145Z,100.00
2022-11-17T04:12:19.109Z,100.00
2022-11-17T04:15:24.729Z,100.00
2022-11-17T04:18:11.537Z,100.00
2022-11-17T04:20:58.177Z,100.00
2022-11-17T04:23:44.541Z,100.00
2022-11-17T04:27:06.217Z,100.00
2022-11-17T04:29:52.658Z,100.00
2022-11-17T04:32:39.167Z,100.00
2022-11-17T04:35:25.800Z,100.00
2022-11-17T04:38:12.409Z,100.00
2022-11-17T04:41:23.678Z,100.00
2022-11-17T04:44:12.315Z,100.00
2022-11-17T04:46:59.447Z,100.00
2022-11-17T04:49:45.918Z,100.00
2022-11-17T04:52:32.416Z,100.00
2022-11-17T04:55:23.666Z,100.00
2022-11-17T04:58:11.092Z,100.00
2022-11-17T05:01:12.208Z,100.00
2022-11-17T05:04:00.680Z,100.00
2022-11-17T05:06:46.986Z,100.00
2022-11-17T05:09:33.431Z,100.00
2022-11-17T05:12:38.118Z,100.00
2022-11-17T05:15:44.753Z,100.00
2022-11-17T05:18:30.990Z,100.00
2022-11-17T05:21:17.357Z,100.00
2022-11-17T05:24:04.459Z,100.00
2022-11-17T05:26:50.939Z,100.00
2022-11-17T05:29:37.194Z,100.00
2022-11-17T05:32:23.402Z,100.00
2022-11-17T05:35:10.662Z,100.00
2022-11-17T05:37:56.968Z,100.00
2022-11-17T05:40:43.061Z,100.00
2022-11-17T05:43:29.425Z,100.00
2022-11-17T05:46:18.149Z,100.00
2022-11-17T05:49:04.646Z,100.00
2022-11-17T05:51:52.933Z,100.00
2022-11-17T05:54:39.592Z,100.00
2022-11-17T05:57:30.965Z,100.00
2022-11-17T06:00:17.467Z,100.00
2022-11-17T06:03:20.519Z,100.00
2022-11-17T06:06:08.348Z,100.00
2022-11-17T06:08:56.250Z,100.00
2022-11-17T06:11:42.750Z,100.00
2022-11-17T06:14:29.047Z,100.00
2022-11-17T06:17:25.810Z,100.00
2022-11-17T06:20:18.048Z,100.00
2022-11-17T06:23:07.013Z,100.00
2022-11-17T06:25:53.747Z,100.00
2022-11-17T06:28:43.560Z,100.00
2022-11-17T06:31:32.360Z,100.00
2022-11-17T06:34:19.292Z,100.00
2022-11-17T06:37:05.556Z,100.00
2022-11-17T06:39:52.709Z,100.00
2022-11-17T06:43:09.639Z,100.00
2022-11-17T06:45:56.151Z,100.00
2022-11-17T06:48:42.930Z,100.00
2022-11-17T06:51:34.842Z,100.00
2022-11-17T06:54:21.634Z,100.00
2022-11-17T06:57:08.607Z,100.00
2022-11-17T06:59:55.126Z,100.00
2022-11-17T07:02:41.979Z,100.00
2022-11-17T07:05:29.054Z,100.00
2022-11-17T07:08:15.705Z,100.00
2022-11-17T07:11:07.982Z,100.00
2022-11-17T07:13:55.194Z,100.00
2022-11-17T07:16:43.489Z,100.00
2022-11-17T07:19:30.114Z,100.00
2022-11-17T07:22:16.483Z,100.00
2022-11-17T07:25:04.624Z,100.00
2022-11-17T07:27:58.234Z,100.00
2022-11-17T07:30:44.896Z,100.00
2022-11-17T07:33:33.201Z,100.00
2022-11-17T07:36:19.962Z,100.00
2022-11-17T07:39:07.017Z,100.00
2022-11-17T07:41:54.294Z,100.00
2022-11-17T07:44:41.196Z,100.00
2022-11-17T07:47:28.005Z,100.00
2022-11-17T07:50:15.864Z,100.00
2022-11-17T07:53:02.781Z,100.00
2022-11-17T07:55:49.380Z,100.00
2022-11-17T07:58:37.536Z,100.00
2022-11-17T08:01:27.437Z,100.00
2022-11-17T08:04:14.526Z,100.00
2022-11-17T08:07:01.200Z,100.00
2022-11-17T08:09:48.049Z,100.00
2022-11-17T08:12:34.759Z,100.00
2022-11-17T08:15:22.506Z,100.00
2022-11-17T08:18:09.657Z,100.00
2022-11-17T08:21:06.638Z,100.00
2022-11-17T08:23:55.192Z,100.00
2022-11-17T08:26:41.930Z,100.00
2022-11-17T08:29:28.607Z,100.00
2022-11-17T08:32:15.549Z,100.00
2022-11-17T08:35:07.310Z,100.00
2022-11-17T08:37:55.172Z,100.00
2022-11-17T08:40:42.119Z,100.00
2022-11-17T08:43:29.092Z,100.00
2022-11-17T08:46:15.546Z,100.00
2022-11-17T08:49:03.033Z,100.00
2022-11-17T08:51:49.614Z,100.00
2022-11-17T08:54:36.313Z,100.00
2022-11-17T08:57:23.080Z,100.00
2022-11-17T09:00:10.932Z,100.00
2022-11-17T09:02:57.205Z,100.00
2022-11-17T09:05:47.144Z,100.00
2022-11-17T09:08:48.910Z,100.00
2022-11-17T09:11:40.216Z,100.00
2022-11-17T09:14:31.642Z,100.00
2022-11-17T09:17:18.146Z,100.00
2022-11-17T09:20:05.219Z,100.00
2022-11-17T09:22:51.620Z,100.00
2022-11-17T09:25:38.011Z,100.00
2022-11-17T09:28:25.939Z,100.00
2022-11-17T09:31:16.233Z,100.00
2022-11-17T09:34:05.633Z,100.00
2022-11-17T09:36:52.480Z,100.00
2022-11-17T09:39:39.176Z,100.00
2022-11-17T09:42:25.941Z,100.00
2022-11-17T09:45:25.563Z,100.00
2022-11-17T09:48:40.703Z,100.00
2022-11-17T09:51:31.590Z,100.00
2022-11-17T09:54:41.672Z,100.00
2022-11-17T09:57:36.505Z,100.00
2022-11-17T10:00:23.284Z,100.00
2022-11-17T10:03:22.147Z,100.00
2022-11-17T10:06:19.933Z,100.00
2022-11-17T10:09:27.768Z,100.00
2022-11-17T10:12:26.767Z,100.00
2022-11-17T10:15:31.668Z,100.00
2022-11-17T10:18:18.208Z,100.00
2022-11-17T10:21:06.784Z,100.00
2022-11-17T10:23:58.436Z,100.00
2022-11-17T10:26:49.450Z,98.85
2022-11-17T10:29:36.073Z,99.94
2022-11-17T10:32:22.717Z,96.58
2022-11-17T10:35:27.619Z,96.81
2022-11-17T10:38:22.191Z,98.16
2022-11-17T10:41:15.595Z,96.52
2022-11-17T10:44:17.242Z,97.16
2022-11-17T10:47:04.684Z,95.46
2022-11-17T10:50:28.479Z,92.47
2022-11-17T10:53:25.714Z,90.21
2022-11-17T10:56:16.455Z,90.01
2022-11-17T10:59:19.452Z,88.55
2022-11-17T11:02:27.746Z,90.63
2022-11-17T11:05:23.390Z,86.59
2022-11-17T11:08:20.353Z,82.00
2022-11-17T11:11:17.809Z,79.95
2022-11-17T11:14:26.251Z,77.18
2022-11-17T11:17:16.287Z,77.99
2022-11-17T11:20:04.350Z,80.67
2022-11-17T11:22:58.993Z,79.88
2022-11-17T11:25:58.967Z,79.35
2022-11-17T11:29:08.235Z,80.51
2022-11-17T11:32:26.824Z,82.21
2022-11-17T11:35:48.117Z,82.60
2022-11-17T11:38:43.298Z,82.97
2022-11-17T11:41:44.810Z,85.09
2022-11-17T11:45:35.414Z,83.49
2022-11-17T11:48:28.121Z,82.07
2022-11-17T11:51:37.328Z,81.36
2022-11-17T11:54:46.312Z,82.19
2022-11-17T11:57:49.372Z,81.32
2022-11-17T12:00:35.903Z,81.41
2022-11-17T12:03:30.134Z,79.12
2022-11-17T12:06:47.418Z,79.14
2022-11-17T12:09:46.719Z,77.77
2022-11-17T12:12:41.057Z,77.06
2022-11-17T12:15:27.392Z,77.79
2022-11-17T12:18:31.143Z,77.78
2022-11-17T12:21:25.709Z,76.64
2022-11-17T12:24:33.819Z,72.92
2022-11-17T12:27:36.158Z,73.86
2022-11-17T12:30:28.922Z,74.75
2022-11-17T12:33:15.618Z,73.24
2022-11-17T12:36:29.770Z,72.48
2022-11-17T12:39:54.908Z,72.19
2022-11-17T12:43:16.497Z,71.65
2022-11-17T12:46:35.706Z,71.95
2022-11-17T12:49:38.783Z,71.70
2022-11-17T12:52:31.558Z,72.11
2022-11-17T12:55:23.780Z,72.49
2022-11-17T12:58:33.723Z,70.97
2022-11-17T13:01:41.595Z,71.13
2022-11-17T13:04:49.864Z,69.97
2022-11-17T13:07:36.485Z,70.37
2022-11-17T13:10:29.512Z,68.33
2022-11-17T13:13:17.614Z,67.44
2022-11-17T13:16:04.833Z,68.15
2022-11-17T13:18:51.890Z,69.63
2022-11-17T13:21:38.423Z,70.10
2022-11-17T13:24:31.383Z,68.03
2022-11-17T13:27:29.931Z,65.86
2022-11-17T13:30:25.365Z,66.25
2022-11-17T13:33:21.752Z,65.19
2022-11-17T13:36:25.027Z,64.62
2022-11-17T13:39:17.033Z,64.95
2022-11-17T13:42:04.143Z,65.70
2022-11-17T13:44:50.834Z,65.96
2022-11-17T13:47:37.255Z,64.59
2022-11-17T13:50:26.859Z,63.61
2022-11-17T13:53:25.374Z,63.25
2022-11-17T13:56:31.036Z,63.79
2022-11-17T13:59:47.955Z,65.16
2022-11-17T14:02:34.351Z,65.35
2022-11-17T14:05:30.084Z,66.40
2022-11-17T14:08:23.250Z,67.52
2022-11-17T14:11:09.808Z,68.31
2022-11-17T14:14:01.200Z,69.73
2022-11-17T14:16:47.925Z,71.62
2022-11-17T14:19:34.402Z,76.06
2022-11-17T14:22:30.812Z,78.90
2022-11-17T14:25:22.821Z,79.99
2022-11-17T14:28:18.022Z,81.61
2022-11-17T14:31:04.535Z,80.99
2022-11-17T14:33:50.957Z,82.01
2022-11-17T14:36:39.206Z,82.71
2022-11-17T14:39:25.539Z,85.81
2022-11-17T14:42:12.206Z,92.36
2022-11-17T14:44:58.547Z,92.99
2022-11-17T14:47:45.483Z,88.38
2022-11-17T14:50:33.223Z,88.75
2022-11-17T14:53:19.924Z,87.67
2022-11-17T14:56:10.024Z,88.11
2022-11-17T14:59:00.382Z,87.27
2022-11-17T15:01:46.829Z,84.75
2022-11-17T15:04:50.060Z,87.37
2022-11-17T15:07:37.912Z,88.54
2022-11-17T15:10:55.339Z,90.89
2022-11-17T15:13:44.979Z,96.10
2022-11-17T15:16:59.994Z,100.00
2022-11-17T15:19:46.692Z,100.00
2022-11-17T15:22:33.475Z,100.00
2022-11-17T15:25:25.832Z,100.00
2022-11-17T15:28:15.301Z,100.00
2022-11-17T15:31:15.173Z,100.00
2022-11-17T15:34:01.697Z,100.00
2022-11-17T15:36:49.083Z,100.00
2022-11-17T15:39:36.445Z,100.00
2022-11-17T15:42:23.018Z,100.00
2022-11-17T15:45:10.793Z,100.00
2022-11-17T15:48:05.834Z,100.00
2022-11-17T15:51:00.430Z,100.00
2022-11-17T15:53:48.961Z,100.00
2022-11-17T15:56:39.348Z,100.00
2022-11-17T15:59:25.893Z,100.00
2022-11-17T16:02:16.210Z,100.00
2022-11-17T16:05:02.869Z,100.00
2022-11-17T16:07:49.171Z,100.00
2022-11-17T16:10:35.917Z,100.00
2022-11-17T16:13:23.293Z,100.00
2022-11-17T16:16:36.587Z,100.00
2022-11-17T16:19:22.934Z,100.00
2022-11-17T16:22:09.580Z,100.00
2022-11-17T16:24:56.379Z,100.00
2022-11-17T16:27:43.025Z,100.00
2022-11-17T16:30:35.210Z,100.00
2022-11-17T16:33:22.293Z,100.00
2022-11-17T16:36:09.171Z,100.00
2022-11-17T16:39:13.586Z,100.00
2022-11-17T16:42:01.470Z,100.00
2022-11-17T16:44:48.019Z,100.00
2022-11-17T16:47:35.114Z,100.00
2022-11-17T16:50:21.482Z,100.00
2022-11-17T16:53:07.879Z,100.00
2022-11-17T16:55:54.110Z,100.00
2022-11-17T16:58:40.766Z,100.00
2022-11-17T17:01:34.805Z,100.00
2022-11-17T17:04:22.951Z,100.00
2022-11-17T17:07:09.277Z,100.00
2022-11-17T17:09:55.861Z,100.00
2022-11-17T17:12:54.537Z,100.00
2022-11-17T17:15:41.828Z,100.00
2022-11-17T17:18:28.710Z,100.00
2022-11-17T17:21:18.999Z,100.00
2022-11-17T17:24:06.288Z,100.00
2022-11-17T17:26:52.659Z,100.00
2022-11-17T17:29:41.463Z,100.00
2022-11-17T17:32:28.524Z,100.00
2022-11-17T17:35:15.200Z,100.00
2022-11-17T17:38:01.914Z,100.00
2022-11-17T17:40:48.573Z,100.00
2022-11-17T17:43:38.433Z,100.00
2022-11-17T17:46:25.766Z,100.00
2022-11-17T17:49:12.913Z,100.00
2022-11-17T17:51:59.694Z,100.00
2022-11-17T17:54:46.098Z,100.00
2022-11-17T17:57:34.024Z,100.00
2022-11-17T18:00:20.760Z,100.00
2022-11-17T18:03:07.270Z,100.00
2022-11-17T18:05:58.791Z,100.00
2022-11-17T18:08:45.600Z,100.00
2022-11-17T18:11:33.327Z,100.00
2022-11-17T18:14:25.045Z,100.00
2022-11-17T18:17:11.397Z,100.00
2022-11-17T18:19:57.880Z,100.00
2022-11-17T18:22:44.596Z,100.00
2022-11-17T18:25:32.768Z,100.00
2022-11-17T18:28:20.043Z,100.00
2022-11-17T18:31:08.104Z,100.00
2022-11-17T18:33:59.805Z,100.00
2022-11-17T18:36:46.984Z,100.00
2022-11-17T18:39:33.492Z,100.00
2022-11-17T18:42:19.934Z,100.00
2022-11-17T18:45:06.703Z,100.00
2022-11-17T18:47:53.244Z,100.00
2022-11-17T18:51:12.206Z,100.00
2022-11-17T18:53:54.222Z,100.00
2022-11-17T18:56:40.932Z,100.00
2022-11-17T18:59:27.671Z,100.00
2022-11-17T19:02:14.228Z,100.00
2022-11-17T19:05:01.097Z,100.00
2022-11-17T19:07:48.405Z,100.00
2022-11-17T19:10:34.789Z,100.00
2022-11-17T19:13:22.030Z,100.00
2022-11-17T19:16:17.217Z,100.00
2022-11-17T19:19:03.543Z,100.00
2022-11-17T19:21:50.248Z,100.00
2022-11-17T19:24:36.723Z,100.00
2022-11-17T19:27:23.598Z,100.00
2022-11-17T19:30:10.615Z,100.00
2022-11-17T19:32:57.961Z,100.00
2022-11-17T19:35:44.770Z,100.00
2022-11-17T19:38:35.546Z,100.00
2022-11-17T19:41:34.211Z,100.00
2022-11-17T19:44:20.734Z,100.00
2022-11-17T19:47:07.547Z,100.00
2022-11-17T19:49:53.732Z,100.00
2022-11-17T19:52:40.068Z,100.00
2022-11-17T19:55:26.870Z,100.00
2022-11-17T19:58:16.334Z,100.00
2022-11-17T20:01:13.965Z,100.00
2022-11-17T20:04:01.571Z,100.00
2022-11-17T20:06:48.623Z,100.00
2022-11-17T20:09:35.963Z,100.00
2022-11-17T20:12:22.545Z,100.00
2022-11-17T20:15:27.017Z,100.00
2022-11-17T20:18:17.289Z,100.00
2022-11-17T20:21:05.656Z,100.00
2022-11-17T20:23:52.190Z,100.00
2022-11-17T20:26:40.887Z,100.00
2022-11-17T20:29:27.189Z,100.00
2022-11-17T20:32:13.683Z,100.00
2022-11-17T20:35:00.046Z,100.00
2022-11-17T20:37:46.897Z,100.00
2022-11-17T20:40:34.109Z,100.00
2022-11-17T20:43:20.543Z,100.00
2022-11-17T20:46:07.470Z,100.00
2022-11-17T20:48:54.264Z,100.00
2022-11-17T20:51:41.850Z,100.00
2022-11-17T20:54:28.386Z,100.00
2022-11-17T20:57:15.012Z,100.00
2022-11-17T21:00:01.672Z,100.00
2022-11-17T21:02:48.347Z,100.00
2022-11-17T21:05:34.815Z,100.00
2022-11-17T21:08:21.830Z,100.00
2022-11-17T21:11:11.171Z,100.00
2022-11-17T21:13:57.873Z,100.00
2022-11-17T21:16:45.700Z,100.00
2022-11-17T21:19:36.514Z,100.00
2022-11-17T21:22:26.096Z,100.00
2022-11-17T21:25:12.529Z,100.00
2022-11-17T21:27:59.343Z,100.00
2022-11-17T21:30:47.291Z,100.00
2022-11-17T21:33:35.827Z,100.00
2022-11-17T21:36:24.621Z,100.00
2022-11-17T21:39:17.317Z,100.00
2022-11-17T21:42:04.699Z,100.00
2022-11-17T21:44:51.329Z,100.00
2022-11-17T21:47:38.149Z,100.00
2022-11-17T21:50:24.974Z,100.00
2022-11-17T21:53:11.324Z,100.00
2022-11-17T21:56:02.630Z,100.00
2022-11-17T21:58:53.765Z,100.00
2022-11-17T22:01:41.007Z,100.00
2022-11-17T22:04:27.959Z,100.00
2022-11-17T22:07:15.044Z,100.00
2022-11-17T22:10:01.708Z,100.00
2022-11-17T22:12:57.163Z,100.00
2022-11-17T22:15:53.910Z,100.00
2022-11-17T22:18:41.925Z,100.00
2022-11-17T22:21:28.505Z,100.00
2022-11-17T22:24:15.499Z,100.00
2022-11-17T22:27:01.916Z,100.00
2022-11-17T22:29:48.436Z,100.00
2022-11-17T22:32:34.743Z,100.00
2022-11-17T22:35:23.429Z,100.00
2022-11-17T22:38:10.082Z,100.00
2022-11-17T22:41:01.505Z,100.00
2022-11-17T22:43:52.237Z,100.00
2022-11-17T22:46:40.505Z,100.00
2022-11-17T22:49:27.222Z,100.00
2022-11-17T22:52:13.705Z,100.00
2022-11-17T22:55:00.437Z,100.00
2022-11-17T22:57:46.891Z,100.00
2022-11-17T23:00:33.542Z,100.00
2022-11-17T23:03:20.167Z,100.00
2022-11-17T23:06:07.057Z,100.00
2022-11-17T23:08:54.899Z,100.00
2022-11-17T23:11:42.273Z,100.00
2022-11-17T23:14:28.924Z,100.00
2022-11-17T23:17:15.327Z,100.00
2022-11-17T23:20:01.966Z,100.00
2022-11-17T23:22:53.796Z,100.00
2022-11-17T23:25:40.154Z,100.00
2022-11-17T23:28:26.742Z,100.00
2022-11-17T23:31:16.656Z,100.00
2022-11-17T23:34:03.311Z,100.00
2022-11-17T23:36:49.494Z,100.00
2022-11-17T23:39:36.280Z,100.00
2022-11-17T23:42:22.661Z,100.00
2022-11-17T23:45:11.718Z,100.00
2022-11-17T23:47:58.112Z,100.00
2022-11-17T23:50:44.595Z,100.00
2022-11-17T23:53:31.331Z,100.00
2022-11-17T23:56:20.437Z,100.00
2022-11-17T23:59:08.194Z,100.00
